Catàleg de serveis del Meteocat

Dades de l'estació automàtica Gurb

?
?
Resum diari 22:30 TU
Dades diàries de l'estació meteorològica
Temperatura mitjana 7.4 °C
Temperatura màxima 9.5 °C 11:53 TU
Temperatura mínima 5.7 °C 3:33 TU
Humitat relativa mitjana 94%
Precipitació acumulada 4.6 mm
Ratxa màxima del vent (2 m) 15.5 km/h - 14º 19:31 TU
Irradiació solar global 3.1 MJ/m2

El tram horari està expressat en Temps Universal (TU). Cal sumar una hora en horari d'hivern i dues en horari d'estiu per passar a l'hora oficial.

Gurb

Metadades estació meteorol´gica
Municipi Gurb
Comarca Osona
Altitud 509 m
Data alta 31.03.1999
Estat actual Operativa
Dades de període
Període
TU
TM
°C
TX
°C
TN
°C
HRM
%
PPT
mm
VVM (2 m)
km/h
DVM (2 m)
graus
VVX (2 m)
km/h
RS
W/m2
00:00 - 00:30 6.5 6.6 6.5 99 0.0 0.0 337 1.8 0
00:30 - 01:00 6.6 6.7 6.5 98 0.0 1.1 350 3.6 0
01:00 - 01:30 6.6 6.7 6.5 98 0.0 1.8 14 4.7 0
01:30 - 02:00 6.4 6.6 6.4 98 0.0 2.5 353 5.0 0
02:00 - 02:30 6.3 6.4 6.2 98 0.0 1.4 351 3.6 0
02:30 - 03:00 6.0 6.1 5.8 99 0.0 0.4 332 4.3 0
03:00 - 03:30 6.0 6.0 5.8 99 0.0 0.4 316 3.6 0
03:30 - 04:00 5.8 5.9 5.7 99 0.0 0.4 189 3.6 0
04:00 - 04:30 6.0 6.1 5.8 99 0.0 1.4 359 4.3 0
04:30 - 05:00 6.1 6.2 6.1 99 0.0 1.8 18 4.3 0
05:00 - 05:30 6.0 6.1 6.0 99 0.0 0.7 43 4.7 0
05:30 - 06:00 6.2 6.2 6.1 99 0.0 0.4 352 2.5 0
06:00 - 06:30 6.1 6.2 6.0 99 0.0 0.4 13 2.9 0
06:30 - 07:00 6.2 6.3 6.1 99 0.0 0.7 82 4.0 3
07:00 - 07:30 6.3 6.6 6.1 99 0.0 0.7 18 3.6 44
07:30 - 08:00 6.7 6.7 6.6 97 0.0 0.4 210 2.5 35
08:00 - 08:30 6.8 7.3 6.7 95 0.0 1.4 10 4.7 115
08:30 - 09:00 7.4 7.5 7.3 92 0.0 2.2 31 4.7 135
09:00 - 09:30 7.7 8.0 7.3 92 0.0 1.4 78 5.8 160
09:30 - 10:00 7.9 7.9 7.8 91 0.1 1.8 35 4.3 124
10:00 - 10:30 8.0 8.0 7.9 92 0.4 1.4 31 4.0 87
10:30 - 11:00 8.2 8.4 8.0 93 0.1 1.4 64 5.4 145
11:00 - 11:30 8.6 8.9 8.4 92 0.0 2.5 69 5.4 147
11:30 - 12:00 9.2 9.5 8.9 85 0.0 2.2 345 10.8 179
12:00 - 12:30 9.0 9.2 8.9 84 0.1 2.5 334 7.2 84
12:30 - 13:00 9.0 9.1 8.9 81 0.0 2.2 345 7.2 92
13:00 - 13:30 9.0 9.0 8.9 81 0.0 3.6 357 7.9 69
13:30 - 14:00 8.9 9.1 8.8 83 0.0 4.7 343 9.0 111
14:00 - 14:30 9.0 9.1 8.9 82 0.0 3.6 10 6.8 73
14:30 - 15:00 8.9 8.9 8.8 84 0.0 2.9 34 4.7 58
15:00 - 15:30 8.8 8.9 8.8 85 0.0 4.0 353 6.1 56
15:30 - 16:00 8.7 8.8 8.6 86 0.0 3.6 352 6.1 23
16:00 - 16:30 8.5 8.6 8.3 88 0.0 1.8 1 4.7 4
16:30 - 17:00 8.1 8.2 7.8 90 0.0 0.0 0 0.0 0
17:00 - 17:30 7.6 7.7 7.4 94 0.0 0.4 292 1.8 0
17:30 - 18:00 7.4 7.5 7.4 91 0.0 0.4 285 2.2 0
18:00 - 18:30 7.7 7.9 7.5 92 0.0 0.4 201 3.2 0
18:30 - 19:00 7.8 7.8 7.7 94 0.0 0.0 169 1.1 0
19:00 - 19:30 8.0 8.3 7.8 93 1.6 4.0 271 14.4 0
19:30 - 20:00 8.0 8.3 7.8 95 1.9 6.1 130 15.5 0
20:00 - 20:30 7.8 8.0 7.4 96 0.4 4.0 145 9.7 0
20:30 - 21:00 7.4 7.5 7.2 98 0.0 1.1 319 7.2 0
21:00 - 21:30 7.1 7.2 7.1 98 0.0 1.8 333 5.8 0
21:30 - 22:00 6.9 7.1 6.8 99 0.0 1.1 290 4.3 0
22:00 - 22:30 6.6 6.8 6.5 99 0.0 0.7 263 3.2 0
22:30 - 23:00 6.3 6.5 6.0 99 0.0 0.7 313 5.0 0
23:00 - 23:30 (s/d) (s/d) (s/d) (s/d) (s/d) (s/d) (s/d) (s/d) (s/d)

Les dades en taronja només han passat un control de qualitat automàtic. Resta pendent la seva validació definitiva.